Time;durP1;ratioP1;P1;durP2;ratioP2;P2;SDS_P1;SDS_P2;PMS_P1;PMS_P2;Temp;Humidity;BMP_temperature;BMP_pressure;BME280_temperature;BME280_humidity;BME280_pressure;Samples;Min_cycle;Max_cycle;Signal;HPM_P1;HPM_P2
2023/11/24 00:00:09;;;;;;;10.77;2.77;;;;;;;;;;688740;28;848;-71
2023/11/24 00:00:32;;;;;;;9.55;3.08;;;;;;;;;;686847;28;1261;-72
2023/11/24 00:00:52;;;;;;;9.47;2.80;;;;;;;;;;686555;28;4474;-71
2023/11/24 00:01:13;;;;;;;10.00;3.05;;;;;;;;;;687897;28;857;-71
2023/11/24 00:01:34;;;;;;;9.93;3.10;;;;;;;;;;687389;28;1149;-73
2023/11/24 00:01:54;;;;;;;8.88;3.00;;;;;;;;;;687809;28;1096;-70
2023/11/24 00:02:15;;;;;;;10.50;3.13;;;;;;;;;;687886;28;1188;-71
2023/11/24 00:02:35;;;;;;;11.93;3.60;;;;;;;;;;689568;28;943;-71
2023/11/24 00:02:55;;;;;;;9.07;3.03;;;;;;;;;;690661;28;815;-70
2023/11/24 00:03:16;;;;;;;9.23;3.50;;;;;;;;;;690396;28;943;-72
2023/11/24 00:03:36;;;;;;;12.27;5.93;;;;;;;;;;688673;28;887;-69
2023/11/24 00:03:58;;;;;;;14.02;6.93;;;;;;;;;;690406;28;5648;-69
2023/11/24 00:04:19;;;;;;;13.07;4.85;;;;;;;;;;690481;28;1058;-69
2023/11/24 00:04:39;;;;;;;12.23;3.83;;;;;;;;;;689535;28;1029;-70
2023/11/24 00:04:59;;;;;;;10.50;3.80;;;;;;;;;;690020;28;1195;-70
2023/11/24 00:05:21;;;;;;;10.50;3.53;;;;;;;;;;690601;28;809;-70
2023/11/24 00:05:42;;;;;;;9.57;2.78;;;;;;;;;;692104;28;1637;-71
2023/11/24 00:06:03;;;;;;;9.65;2.92;;;;;;;;;;693341;28;880;-70
2023/11/24 00:06:23;;;;;;;10.60;3.10;;;;;;;;;;692656;28;813;-70
2023/11/24 00:06:44;;;;;;;11.70;2.87;;;;;;;;;;689008;28;4323;-68
2023/11/24 00:07:05;;;;;;;9.00;2.28;;;;;;;;;;690226;28;951;-67
2023/11/24 00:07:26;;;;;;;8.77;2.58;;;;;;;;;;689990;28;881;-72
2023/11/24 00:07:47;;;;;;;10.82;2.90;;;;;;;;;;689203;28;1231;-69
2023/11/24 00:08:08;;;;;;;8.50;2.67;;;;;;;;;;690549;28;833;-69
2023/11/24 00:08:30;;;;;;;8.57;2.33;;;;;;;;;;688862;28;908;-68
2023/11/24 00:08:51;;;;;;;11.00;2.33;;;;;;;;;;690419;28;1008;-71
2023/11/24 00:09:12;;;;;;;8.68;2.50;;;;;;;;;;688117;28;857;-68
2023/11/24 00:09:35;;;;;;;7.50;2.40;;;;;;;;;;688396;28;1269;-70
2023/11/24 00:09:55;;;;;;;10.30;2.42;;;;;;;;;;690053;28;4453;-71
2023/11/24 00:10:17;;;;;;;10.77;2.60;;;;;;;;;;690670;28;921;-69
2023/11/24 00:10:38;;;;;;;8.93;2.50;;;;;;;;;;689291;28;1099;-70
2023/11/24 00:10:58;;;;;;;8.77;2.70;;;;;;;;;;691037;28;864;-69
2023/11/24 00:11:18;;;;;;;9.37;2.40;;;;;;;;;;690745;28;778;-69
2023/11/24 00:11:41;;;;;;;10.53;2.40;;;;;;;;;;689862;28;1059;-70
2023/11/24 00:12:01;;;;;;;11.30;2.35;;;;;;;;;;688915;28;1042;-70
2023/11/24 00:12:21;;;;;;;9.97;2.67;;;;;;;;;;690743;28;1213;-71
2023/11/24 00:12:41;;;;;;;11.77;2.77;;;;;;;;;;689233;28;4642;-70
2023/11/24 00:13:02;;;;;;;10.90;2.85;;;;;;;;;;690686;28;971;-71
2023/11/24 00:13:22;;;;;;;8.57;2.33;;;;;;;;;;690307;28;908;-69
2023/11/24 00:13:43;;;;;;;8.43;2.70;;;;;;;;;;689056;28;1270;-69
2023/11/24 00:14:04;;;;;;;11.50;3.07;;;;;;;;;;690278;28;1384;-70
2023/11/24 00:14:25;;;;;;;12.43;2.83;;;;;;;;;;690820;28;846;-71
2023/11/24 00:14:45;;;;;;;8.60;2.30;;;;;;;;;;688648;28;1379;-72
2023/11/24 00:15:06;;;;;;;7.65;2.28;;;;;;;;;;688993;28;1334;-70
2023/11/24 00:15:26;;;;;;;10.10;2.47;;;;;;;;;;686960;28;908;-70
2023/11/24 00:15:46;;;;;;;10.80;2.10;;;;;;;;;;685096;28;4379;-69
2023/11/24 00:16:09;;;;;;;8.27;1.80;;;;;;;;;;685664;28;996;-70
2023/11/24 00:16:30;;;;;;;8.65;2.13;;;;;;;;;;685105;28;1130;-69
2023/11/24 00:16:50;;;;;;;11.43;2.30;;;;;;;;;;687588;28;905;-66
2023/11/24 00:17:10;;;;;;;10.73;2.03;;;;;;;;;;688094;28;1125;-69
2023/11/24 00:17:30;;;;;;;9.68;2.10;;;;;;;;;;688634;28;1054;-70
2023/11/24 00:17:50;;;;;;;8.70;2.10;;;;;;;;;;687419;28;1273;-69
2023/11/24 00:18:12;;;;;;;10.67;2.00;;;;;;;;;;687673;28;916;-70
2023/11/24 00:18:33;;;;;;;9.00;2.10;;;;;;;;;;685520;28;1074;-71
2023/11/24 00:18:53;;;;;;;11.02;2.88;;;;;;;;;;684252;28;4271;-74
2023/11/24 00:19:16;;;;;;;9.03;2.00;;;;;;;;;;686560;28;948;-72
2023/11/24 00:19:36;;;;;;;10.20;2.17;;;;;;;;;;686180;28;1036;-72
2023/11/24 00:19:57;;;;;;;10.33;2.33;;;;;;;;;;688898;28;1007;-72
2023/11/24 00:20:17;;;;;;;11.13;2.20;;;;;;;;;;688136;28;3736;-69
2023/11/24 00:20:37;;;;;;;8.83;2.30;;;;;;;;;;687592;28;2355;-70
2023/11/24 00:21:05;;;;;;;9.10;2.35;;;;;;;;;;689810;28;893;-69
2023/11/24 00:21:26;;;;;;;13.10;2.60;;;;;;;;;;689673;28;1257;-70
2023/11/24 00:21:49;;;;;;;11.43;2.70;;;;;;;;;;687833;28;4439;-72
2023/11/24 00:22:10;;;;;;;11.30;2.83;;;;;;;;;;688669;28;972;-70
2023/11/24 00:22:30;;;;;;;8.57;2.40;;;;;;;;;;687824;28;1186;-67
2023/11/24 00:22:50;;;;;;;10.13;2.00;;;;;;;;;;689268;28;861;-72
2023/11/24 00:23:10;;;;;;;10.20;2.03;;;;;;;;;;685634;28;1266;-71
2023/11/24 00:23:31;;;;;;;10.57;2.00;;;;;;;;;;686940;28;2288;-71
2023/11/24 00:23:51;;;;;;;9.88;1.73;;;;;;;;;;686805;28;942;-71
2023/11/24 00:24:11;;;;;;;9.07;1.90;;;;;;;;;;685996;28;824;-72
2023/11/24 00:24:32;;;;;;;8.10;1.90;;;;;;;;;;685855;28;2251;-74
2023/11/24 00:24:52;;;;;;;11.32;2.30;;;;;;;;;;685037;28;4636;-74
2023/11/24 00:25:12;;;;;;;10.67;2.00;;;;;;;;;;690308;28;793;-71
2023/11/24 00:25:33;;;;;;;8.23;1.70;;;;;;;;;;689042;28;1810;-70
2023/11/24 00:25:54;;;;;;;12.30;2.50;;;;;;;;;;690306;28;828;-73
2023/11/24 00:26:17;;;;;;;9.02;2.33;;;;;;;;;;689654;28;1427;-73
2023/11/24 00:26:50;;;;;;;9.98;2.35;;;;;;;;;;689519;28;2245;-71
2023/11/24 00:27:10;;;;;;;8.70;2.10;;;;;;;;;;686793;28;1369;-71
2023/11/24 00:27:31;;;;;;;9.25;2.00;;;;;;;;;;685974;28;1479;-68
2023/11/24 00:27:53;;;;;;;9.80;2.17;;;;;;;;;;684738;28;4248;-69
2023/11/24 00:28:14;;;;;;;14.15;2.60;;;;;;;;;;685299;28;1345;-70
2023/11/24 00:28:36;;;;;;;10.37;2.17;;;;;;;;;;683322;28;1805;-68
2023/11/24 00:28:58;;;;;;;11.02;2.25;;;;;;;;;;684392;28;1245;-69
2023/11/24 00:29:18;;;;;;;10.82;2.30;;;;;;;;;;684754;28;1350;-71
2023/11/24 00:29:41;;;;;;;12.00;2.60;;;;;;;;;;685144;28;2192;-73
2023/11/24 00:30:05;;;;;;;9.15;2.17;;;;;;;;;;684819;28;1236;-70
2023/11/24 00:30:25;;;;;;;11.27;2.25;;;;;;;;;;684879;28;956;-73
2023/11/24 00:30:46;;;;;;;10.40;2.23;;;;;;;;;;682376;28;4274;-71
2023/11/24 00:31:07;;;;;;;9.23;2.27;;;;;;;;;;686767;28;1225;-72
2023/11/24 00:31:27;;;;;;;9.93;2.53;;;;;;;;;;687053;28;1283;-71
2023/11/24 00:31:48;;;;;;;9.63;2.40;;;;;;;;;;688537;28;1477;-73
2023/11/24 00:32:09;;;;;;;11.33;2.57;;;;;;;;;;684825;28;1395;-69
2023/11/24 00:32:29;;;;;;;12.00;2.67;;;;;;;;;;682037;29;910;-71
2023/11/24 00:32:50;;;;;;;10.55;2.22;;;;;;;;;;683607;28;1452;-70
2023/11/24 00:33:12;;;;;;;13.35;2.83;;;;;;;;;;682886;28;1168;-73
2023/11/24 00:33:35;;;;;;;13.45;2.33;;;;;;;;;;683174;28;1892;-71
2023/11/24 00:33:55;;;;;;;11.52;2.50;;;;;;;;;;684721;28;4309;-72
2023/11/24 00:34:16;;;;;;;9.55;2.28;;;;;;;;;;687386;28;1311;-71
2023/11/24 00:34:38;;;;;;;11.43;2.10;;;;;;;;;;686379;28;1129;-68
2023/11/24 00:34:58;;;;;;;11.85;2.38;;;;;;;;;;685034;28;2086;-68
2023/11/24 00:35:20;;;;;;;13.52;2.65;;;;;;;;;;683537;28;877;-70
2023/11/24 00:35:41;;;;;;;11.20;2.60;;;;;;;;;;681372;28;1907;-73
2023/11/24 00:36:01;;;;;;;11.10;2.30;;;;;;;;;;685830;28;1177;-70
2023/11/24 00:36:22;;;;;;;16.77;2.53;;;;;;;;;;684907;28;987;-70
2023/11/24 00:36:42;;;;;;;11.32;2.35;;;;;;;;;;682671;28;4356;-71
2023/11/24 00:37:02;;;;;;;11.43;2.63;;;;;;;;;;684716;28;936;-70
2023/11/24 00:37:23;;;;;;;12.23;2.57;;;;;;;;;;680547;28;1161;-73
2023/11/24 00:37:44;;;;;;;8.85;2.20;;;;;;;;;;680520;28;1879;-72
2023/11/24 00:38:04;;;;;;;11.40;2.50;;;;;;;;;;685166;28;1113;-71
2023/11/24 00:38:25;;;;;;;12.07;2.50;;;;;;;;;;687359;28;1506;-70
2023/11/24 00:38:45;;;;;;;10.88;2.47;;;;;;;;;;687378;28;2488;-72
2023/11/24 00:39:05;;;;;;;10.93;2.37;;;;;;;;;;682608;28;5448;-72
2023/11/24 00:39:25;;;;;;;12.50;2.40;;;;;;;;;;681850;28;810;-73
2023/11/24 00:39:49;;;;;;;14.67;2.70;;;;;;;;;;684867;28;4278;-71
2023/11/24 00:40:13;;;;;;;13.43;2.55;;;;;;;;;;682148;28;1085;-70
2023/11/24 00:40:34;;;;;;;11.98;2.20;;;;;;;;;;682145;28;1832;-71
2023/11/24 00:40:55;;;;;;;10.85;2.25;;;;;;;;;;684349;28;1401;-71
2023/11/24 00:41:16;;;;;;;12.23;2.40;;;;;;;;;;686063;28;1288;-71
2023/11/24 00:41:37;;;;;;;12.98;2.75;;;;;;;;;;687285;28;1681;-73
2023/11/24 00:42:00;;;;;;;16.40;3.13;;;;;;;;;;689831;28;1117;-74
2023/11/24 00:42:21;;;;;;;11.27;2.38;;;;;;;;;;689686;28;1293;-73
2023/11/24 00:42:41;;;;;;;8.75;2.10;;;;;;;;;;687895;28;4396;-71
2023/11/24 00:43:02;;;;;;;8.67;1.90;;;;;;;;;;687747;28;1092;-72
2023/11/24 00:43:23;;;;;;;12.65;2.25;;;;;;;;;;686234;28;1269;-71
2023/11/24 00:43:44;;;;;;;15.50;2.50;;;;;;;;;;685925;28;2563;-72
2023/11/24 00:44:04;;;;;;;12.15;2.17;;;;;;;;;;684560;28;1528;-72
2023/11/24 00:44:24;;;;;;;11.97;2.10;;;;;;;;;;682550;28;1446;-68
2023/11/24 00:44:44;;;;;;;11.67;2.10;;;;;;;;;;682025;28;2378;-73
2023/11/24 00:45:06;;;;;;;12.90;2.42;;;;;;;;;;682726;28;1475;-71
2023/11/24 00:45:27;;;;;;;11.50;2.58;;;;;;;;;;689351;28;1161;-69
2023/11/24 00:45:47;;;;;;;12.10;2.60;;;;;;;;;;688254;28;4444;-76
2023/11/24 00:46:08;;;;;;;12.63;2.70;;;;;;;;;;688589;28;797;-72
2023/11/24 00:46:30;;;;;;;14.43;2.72;;;;;;;;;;685558;28;1360;-71
2023/11/24 00:46:51;;;;;;;13.73;2.95;;;;;;;;;;682049;28;1392;-73
2023/11/24 00:47:11;;;;;;;11.57;2.77;;;;;;;;;;679548;29;1638;-72
2023/11/24 00:47:31;;;;;;;12.67;3.00;;;;;;;;;;678557;29;1122;-71
2023/11/24 00:47:51;;;;;;;14.53;2.80;;;;;;;;;;679741;29;1162;-71
2023/11/24 00:48:12;;;;;;;12.13;2.30;;;;;;;;;;681747;29;1273;-71
2023/11/24 00:48:32;;;;;;;12.23;2.53;;;;;;;;;;681005;28;1097;-71
2023/11/24 00:48:52;;;;;;;13.93;2.65;;;;;;;;;;684752;28;4224;-73
2023/11/24 00:49:12;;;;;;;14.37;3.13;;;;;;;;;;687233;28;1353;-70
2023/11/24 00:49:34;;;;;;;16.30;3.10;;;;;;;;;;685552;28;1756;-72
2023/11/24 00:49:54;;;;;;;15.32;3.22;;;;;;;;;;687643;28;1551;-73
2023/11/24 00:50:16;;;;;;;13.20;3.50;;;;;;;;;;690302;28;1015;-72
2023/11/24 00:50:36;;;;;;;13.90;3.80;;;;;;;;;;689712;28;1751;-71
2023/11/24 00:50:56;;;;;;;11.77;3.00;;;;;;;;;;690406;28;943;-72
2023/11/24 00:51:17;;;;;;;9.83;2.87;;;;;;;;;;690043;28;1294;-70
2023/11/24 00:51:37;;;;;;;9.93;2.33;;;;;;;;;;689502;28;1309;-72
2023/11/24 00:51:57;;;;;;;14.70;2.70;;;;;;;;;;689932;28;4238;-72
2023/11/24 00:52:17;;;;;;;16.70;3.17;;;;;;;;;;689977;28;1273;-71
2023/11/24 00:52:38;;;;;;;10.63;2.50;;;;;;;;;;688764;28;1788;-73
2023/11/24 00:52:59;;;;;;;13.03;2.50;;;;;;;;;;690091;28;1263;-71
2023/11/24 00:53:21;;;;;;;13.88;2.53;;;;;;;;;;689666;28;1386;-71
2023/11/24 00:53:41;;;;;;;11.10;2.33;;;;;;;;;;684859;28;1795;-71
2023/11/24 00:54:02;;;;;;;9.55;2.13;;;;;;;;;;685871;28;1002;-71
2023/11/24 00:54:23;;;;;;;9.35;2.17;;;;;;;;;;686787;28;924;-71
2023/11/24 00:54:43;;;;;;;13.57;2.67;;;;;;;;;;684194;28;4280;-71
2023/11/24 00:55:04;;;;;;;14.27;3.07;;;;;;;;;;686228;28;1985;-72
2023/11/24 00:55:25;;;;;;;14.13;3.10;;;;;;;;;;689408;28;1393;-71
2023/11/24 00:55:45;;;;;;;13.07;2.63;;;;;;;;;;689298;28;1961;-71
2023/11/24 00:56:06;;;;;;;14.80;2.67;;;;;;;;;;690218;28;1970;-71
2023/11/24 00:56:27;;;;;;;12.20;2.80;;;;;;;;;;690367;28;762;-71
2023/11/24 00:56:47;;;;;;;12.73;2.22;;;;;;;;;;691062;28;1733;-72
2023/11/24 00:57:07;;;;;;;14.07;2.37;;;;;;;;;;689424;28;1880;-73
2023/11/24 00:57:28;;;;;;;14.73;3.08;;;;;;;;;;690153;28;1409;-71
2023/11/24 00:57:48;;;;;;;14.33;3.10;;;;;;;;;;688367;28;4311;-72
2023/11/24 00:58:09;;;;;;;11.10;2.40;;;;;;;;;;690292;28;2198;-72
2023/11/24 00:58:29;;;;;;;10.33;2.30;;;;;;;;;;690493;28;832;-71
2023/11/24 00:58:50;;;;;;;13.67;2.60;;;;;;;;;;688700;28;2007;-72
2023/11/24 00:59:11;;;;;;;14.43;2.90;;;;;;;;;;690111;28;1529;-71
2023/11/24 00:59:31;;;;;;;10.97;2.23;;;;;;;;;;689106;28;2653;-72
2023/11/24 00:59:51;;;;;;;11.38;2.05;;;;;;;;;;687102;28;1275;-68
2023/11/24 01:00:12;;;;;;;13.47;2.47;;;;;;;;;;685886;28;2071;-72
2023/11/24 01:00:32;;;;;;;14.77;3.07;;;;;;;;;;683757;28;1577;-69
2023/11/24 01:00:53;;;;;;;13.63;2.90;;;;;;;;;;685294;28;4423;-70
2023/11/24 01:01:14;;;;;;;11.63;2.28;;;;;;;;;;685593;28;2126;-72
2023/11/24 01:01:34;;;;;;;12.37;2.53;;;;;;;;;;683444;28;1767;-72
2023/11/24 01:01:54;;;;;;;12.88;2.70;;;;;;;;;;684188;28;1974;-70
2023/11/24 01:02:14;;;;;;;14.23;2.70;;;;;;;;;;687332;28;1250;-71
2023/11/24 01:02:37;;;;;;;15.00;2.37;;;;;;;;;;686360;28;1834;-71
2023/11/24 01:02:58;;;;;;;12.60;2.38;;;;;;;;;;687981;28;969;-70
2023/11/24 01:03:20;;;;;;;13.77;2.67;;;;;;;;;;689257;28;2120;-70
2023/11/24 01:03:41;;;;;;;19.45;3.00;;;;;;;;;;689489;28;1938;-70
2023/11/24 01:04:02;;;;;;;16.18;3.64;;;;;;;;;;683740;28;4783;-70
2023/11/24 01:04:22;;;;;;;13.27;3.70;;;;;;;;;;685077;28;1455;-72
2023/11/24 01:04:43;;;;;;;12.35;2.92;;;;;;;;;;683262;28;2334;-70
2023/11/24 01:05:03;;;;;;;13.77;2.57;;;;;;;;;;684811;28;1258;-72
2023/11/24 01:05:23;;;;;;;10.35;2.30;;;;;;;;;;682893;28;1349;-69
2023/11/24 01:05:44;;;;;;;14.87;2.63;;;;;;;;;;681541;28;1201;-70
2023/11/24 01:06:05;;;;;;;17.38;2.92;;;;;;;;;;683719;28;1926;-70
2023/11/24 01:06:25;;;;;;;13.37;2.70;;;;;;;;;;684999;28;850;-70
2023/11/24 01:06:45;;;;;;;10.50;2.47;;;;;;;;;;683203;28;4445;-78
2023/11/24 01:07:06;;;;;;;11.53;2.43;;;;;;;;;;685029;28;1338;-70
2023/11/24 01:07:26;;;;;;;12.30;2.75;;;;;;;;;;689726;28;1314;-71
2023/11/24 01:07:46;;;;;;;13.07;2.67;;;;;;;;;;689218;28;2315;-70
2023/11/24 01:08:07;;;;;;;14.23;2.30;;;;;;;;;;686530;28;2043;-71
2023/11/24 01:08:27;;;;;;;13.85;2.70;;;;;;;;;;687248;28;881;-73
2023/11/24 01:08:47;;;;;;;12.17;2.80;;;;;;;;;;686295;28;2827;-69
2023/11/24 01:09:09;;;;;;;12.90;2.63;;;;;;;;;;686765;28;1255;-70
2023/11/24 01:09:30;;;;;;;10.38;2.38;;;;;;;;;;684307;28;2057;-68
2023/11/24 01:09:50;;;;;;;13.13;3.33;;;;;;;;;;679640;28;4570;-69
2023/11/24 01:10:10;;;;;;;16.17;3.30;;;;;;;;;;681723;29;952;-69
2023/11/24 01:10:30;;;;;;;13.23;2.87;;;;;;;;;;678137;29;1364;-70
2023/11/24 01:10:52;;;;;;;14.25;3.10;;;;;;;;;;677814;29;2330;-70
2023/11/24 01:11:13;;;;;;;19.75;3.10;;;;;;;;;;681345;29;2088;-69
2023/11/24 01:11:33;;;;;;;18.08;2.80;;;;;;;;;;680150;28;1104;-70
2023/11/24 01:11:54;;;;;;;15.33;2.80;;;;;;;;;;682817;28;1448;-70
2023/11/24 01:12:14;;;;;;;16.00;2.80;;;;;;;;;;684084;28;1752;-71
2023/11/24 01:12:34;;;;;;;14.98;2.92;;;;;;;;;;686446;28;1841;-71
2023/11/24 01:12:54;;;;;;;15.00;3.00;;;;;;;;;;688290;28;4270;-68
2023/11/24 01:13:15;;;;;;;16.50;2.67;;;;;;;;;;690259;28;1301;-70
2023/11/24 01:13:36;;;;;;;16.53;2.83;;;;;;;;;;689393;28;1589;-71
2023/11/24 01:13:58;;;;;;;13.98;2.67;;;;;;;;;;689936;28;1221;-70
2023/11/24 01:14:18;;;;;;;13.80;2.78;;;;;;;;;;686888;28;1004;-69
2023/11/24 01:14:38;;;;;;;14.90;3.20;;;;;;;;;;686172;28;1877;-70
2023/11/24 01:15:00;;;;;;;12.57;2.80;;;;;;;;;;685188;28;1763;-66
2023/11/24 01:15:21;;;;;;;11.43;2.75;;;;;;;;;;687449;28;1339;-69
2023/11/24 01:15:42;;;;;;;12.50;2.33;;;;;;;;;;682183;28;4389;-71
2023/11/24 01:16:04;;;;;;;12.40;2.60;;;;;;;;;;685088;28;987;-70
2023/11/24 01:16:24;;;;;;;12.90;2.60;;;;;;;;;;683686;28;3233;-69
2023/11/24 01:16:44;;;;;;;11.90;2.60;;;;;;;;;;683559;28;2523;-69
2023/11/24 01:17:04;;;;;;;11.93;2.40;;;;;;;;;;684901;28;828;-69
2023/11/24 01:17:24;;;;;;;13.98;2.50;;;;;;;;;;685147;28;971;-69
2023/11/24 01:17:45;;;;;;;12.53;2.73;;;;;;;;;;683560;28;1796;-69
2023/11/24 01:18:06;;;;;;;12.50;2.90;;;;;;;;;;684851;28;1288;-70
2023/11/24 01:18:27;;;;;;;12.90;2.63;;;;;;;;;;685888;28;940;-70
2023/11/24 01:18:49;;;;;;;13.70;2.92;;;;;;;;;;684575;28;4284;-70
2023/11/24 01:19:09;;;;;;;15.18;3.10;;;;;;;;;;687567;28;2312;-70
2023/11/24 01:19:29;;;;;;;15.80;3.33;;;;;;;;;;683436;28;2168;-70
2023/11/24 01:19:49;;;;;;;17.27;3.10;;;;;;;;;;684787;28;1751;-70
2023/11/24 01:20:10;;;;;;;17.70;3.00;;;;;;;;;;687065;28;1264;-69
2023/11/24 01:20:30;;;;;;;13.20;2.95;;;;;;;;;;683504;28;2117;-70
2023/11/24 01:20:51;;;;;;;16.13;3.17;;;;;;;;;;685762;28;1825;-73
2023/11/24 01:21:11;;;;;;;13.57;2.90;;;;;;;;;;686830;28;2032;-70
2023/11/24 01:21:32;;;;;;;13.40;2.90;;;;;;;;;;690248;28;861;-69
2023/11/24 01:21:52;;;;;;;12.00;2.77;;;;;;;;;;685580;28;4518;-69
2023/11/24 01:22:13;;;;;;;12.75;2.90;;;;;;;;;;687960;28;962;-70
2023/11/24 01:22:33;;;;;;;14.80;3.07;;;;;;;;;;686911;28;1996;-69
2023/11/24 01:22:53;;;;;;;17.37;3.60;;;;;;;;;;687113;28;975;-70
2023/11/24 01:23:14;;;;;;;13.30;3.33;;;;;;;;;;687766;28;933;-70
2023/11/24 01:23:35;;;;;;;12.90;3.10;;;;;;;;;;683743;28;1492;-70
2023/11/24 01:23:59;;;;;;;11.77;3.13;;;;;;;;;;687152;28;838;-70
2023/11/24 01:24:20;;;;;;;13.32;3.22;;;;;;;;;;688507;28;954;-75
2023/11/24 01:24:44;;;;;;;13.43;2.90;;;;;;;;;;685325;28;4327;-68
2023/11/24 01:25:05;;;;;;;11.98;2.80;;;;;;;;;;686095;28;2007;-69
2023/11/24 01:25:26;;;;;;;13.07;2.70;;;;;;;;;;689060;28;773;-72
2023/11/24 01:25:47;;;;;;;11.05;2.90;;;;;;;;;;689223;28;1986;-72
2023/11/24 01:26:07;;;;;;;9.67;2.33;;;;;;;;;;690103;28;880;-70
2023/11/24 01:26:27;;;;;;;11.52;2.30;;;;;;;;;;688681;28;1312;-69
2023/11/24 01:26:48;;;;;;;15.40;3.17;;;;;;;;;;688779;28;1767;-73
2023/11/24 01:27:08;;;;;;;14.07;2.58;;;;;;;;;;689144;28;1986;-72
2023/11/24 01:27:28;;;;;;;11.77;2.97;;;;;;;;;;690039;28;857;-65
2023/11/24 01:27:49;;;;;;;10.97;3.13;;;;;;;;;;685819;28;4507;-66
2023/11/24 01:28:10;;;;;;;10.33;2.47;;;;;;;;;;686028;28;2072;-66
2023/11/24 01:28:30;;;;;;;9.00;1.98;;;;;;;;;;684572;28;2024;-67
2023/11/24 01:28:50;;;;;;;9.00;1.90;;;;;;;;;;683565;28;1592;-71
2023/11/24 01:29:13;;;;;;;6.15;1.65;;;;;;;;;;683948;28;2269;-71
2023/11/24 01:29:33;;;;;;;7.05;1.70;;;;;;;;;;686279;28;2432;-69
2023/11/24 01:29:53;;;;;;;8.10;1.90;;;;;;;;;;684817;28;1313;-68
2023/11/24 01:30:15;;;;;;;7.95;1.85;;;;;;;;;;690162;28;1352;-70
2023/11/24 01:30:35;;;;;;;8.20;2.03;;;;;;;;;;687308;28;2009;-70
2023/11/24 01:30:55;;;;;;;7.53;2.05;;;;;;;;;;685910;28;4241;-70
2023/11/24 01:31:16;;;;;;;8.30;2.00;;;;;;;;;;687200;28;829;-69
2023/11/24 01:31:36;;;;;;;7.40;1.87;;;;;;;;;;685866;28;2383;-73
2023/11/24 01:31:56;;;;;;;7.20;1.90;;;;;;;;;;685427;28;2041;-68
2023/11/24 01:32:17;;;;;;;7.07;1.60;;;;;;;;;;687597;28;901;-67
2023/11/24 01:32:37;;;;;;;7.38;1.80;;;;;;;;;;682514;28;2323;-73
2023/11/24 01:32:58;;;;;;;7.47;1.80;;;;;;;;;;682428;28;1878;-70
2023/11/24 01:33:18;;;;;;;8.82;2.08;;;;;;;;;;681583;28;1351;-69
2023/11/24 01:33:38;;;;;;;9.63;1.77;;;;;;;;;;680737;28;2302;-70
2023/11/24 01:33:59;;;;;;;10.00;1.90;;;;;;;;;;680509;28;4389;-73
2023/11/24 01:34:19;;;;;;;8.30;2.30;;;;;;;;;;680432;29;929;-71
2023/11/24 01:34:39;;;;;;;10.37;2.20;;;;;;;;;;681401;28;2541;-70
2023/11/24 01:34:59;;;;;;;9.10;2.00;;;;;;;;;;684682;28;2071;-74
2023/11/24 01:35:20;;;;;;;10.05;2.25;;;;;;;;;;684556;28;844;-72
2023/11/24 01:35:40;;;;;;;10.17;2.07;;;;;;;;;;679443;28;2460;-71
2023/11/24 01:36:01;;;;;;;11.00;2.00;;;;;;;;;;684673;28;870;-68
2023/11/24 01:36:22;;;;;;;10.35;1.80;;;;;;;;;;686660;28;979;-72
2023/11/24 01:36:42;;;;;;;11.00;2.00;;;;;;;;;;683483;28;4356;-71
2023/11/24 01:37:04;;;;;;;13.05;2.42;;;;;;;;;;687755;28;959;-71
2023/11/24 01:37:24;;;;;;;10.57;2.03;;;;;;;;;;685827;28;1201;-70
2023/11/24 01:37:44;;;;;;;9.17;1.90;;;;;;;;;;684578;28;2891;-71
2023/11/24 01:38:05;;;;;;;9.77;2.17;;;;;;;;;;683932;28;2080;-70
2023/11/24 01:38:25;;;;;;;9.73;2.17;;;;;;;;;;685657;28;1224;-71
2023/11/24 01:38:46;;;;;;;10.03;2.40;;;;;;;;;;685404;28;2443;-70
2023/11/24 01:39:10;;;;;;;10.25;2.20;;;;;;;;;;683615;28;5456;-70
2023/11/24 01:39:30;;;;;;;10.07;1.83;;;;;;;;;;683227;28;2017;-71
2023/11/24 01:39:50;;;;;;;7.20;1.80;;;;;;;;;;679594;29;4300;-72
2023/11/24 01:40:11;;;;;;;8.88;1.98;;;;;;;;;;680597;29;1458;-72
2023/11/24 01:40:34;;;;;;;9.77;1.90;;;;;;;;;;681056;29;2022;-73
2023/11/24 01:40:54;;;;;;;8.18;2.13;;;;;;;;;;679035;29;1675;-72
2023/11/24 01:41:14;;;;;;;10.87;2.33;;;;;;;;;;682086;29;1269;-72
2023/11/24 01:41:34;;;;;;;12.20;2.40;;;;;;;;;;680747;28;1744;-72
2023/11/24 01:41:56;;;;;;;8.18;2.13;;;;;;;;;;684782;28;889;-69
2023/11/24 01:42:16;;;;;;;9.70;2.40;;;;;;;;;;684757;28;994;-71
2023/11/24 01:42:37;;;;;;;11.45;2.30;;;;;;;;;;686671;28;2350;-71
2023/11/24 01:42:57;;;;;;;11.15;2.17;;;;;;;;;;683982;28;4507;-71
2023/11/24 01:43:18;;;;;;;10.07;2.10;;;;;;;;;;689014;28;1099;-73
2023/11/24 01:43:38;;;;;;;9.33;2.00;;;;;;;;;;688152;28;2567;-72
2023/11/24 01:44:06;;;;;;;10.40;2.13;;;;;;;;;;687351;28;1413;-72
2023/11/24 01:44:27;;;;;;;12.10;2.15;;;;;;;;;;686690;28;992;-72
2023/11/24 01:44:47;;;;;;;9.93;2.03;;;;;;;;;;687871;28;2013;-71
2023/11/24 01:45:09;;;;;;;10.80;2.60;;;;;;;;;;689114;28;1966;-73
2023/11/24 01:45:30;;;;;;;12.20;2.85;;;;;;;;;;690263;28;991;-72
2023/11/24 01:45:50;;;;;;;12.05;2.65;;;;;;;;;;687402;28;4461;-73
2023/11/24 01:46:11;;;;;;;9.55;1.98;;;;;;;;;;689584;28;2328;-73
2023/11/24 01:46:31;;;;;;;9.13;2.10;;;;;;;;;;689960;28;794;-74
2023/11/24 01:46:54;;;;;;;10.15;2.90;;;;;;;;;;689268;28;1194;-72
2023/11/24 01:47:15;;;;;;;12.05;2.88;;;;;;;;;;689929;28;813;-74
2023/11/24 01:47:37;;;;;;;10.02;2.17;;;;;;;;;;688860;28;1756;-72
2023/11/24 01:47:57;;;;;;;11.57;2.20;;;;;;;;;;690696;28;976;-73
2023/11/24 01:48:17;;;;;;;11.90;2.17;;;;;;;;;;689700;28;1871;-72
2023/11/24 01:48:38;;;;;;;12.15;2.30;;;;;;;;;;689292;28;1732;-74
2023/11/24 01:48:58;;;;;;;13.00;2.33;;;;;;;;;;688480;28;4244;-74
2023/11/24 01:49:19;;;;;;;11.07;2.75;;;;;;;;;;683940;28;2135;-74
2023/11/24 01:49:39;;;;;;;11.27;2.33;;;;;;;;;;680982;28;2139;-73
2023/11/24 01:50:00;;;;;;;11.75;2.40;;;;;;;;;;685043;28;1469;-74
2023/11/24 01:50:20;;;;;;;14.15;2.92;;;;;;;;;;687246;28;1397;-74
2023/11/24 01:50:41;;;;;;;9.57;2.50;;;;;;;;;;687061;28;1313;-72
2023/11/24 01:51:01;;;;;;;8.30;2.20;;;;;;;;;;683983;28;1271;-73
2023/11/24 01:51:21;;;;;;;11.50;2.77;;;;;;;;;;681001;29;984;-74
2023/11/24 01:51:42;;;;;;;12.70;2.47;;;;;;;;;;680921;28;4394;-74
2023/11/24 01:52:05;;;;;;;10.68;2.40;;;;;;;;;;683912;28;2015;-73
2023/11/24 01:52:25;;;;;;;13.63;2.50;;;;;;;;;;684128;28;1709;-72
2023/11/24 01:52:47;;;;;;;10.83;2.30;;;;;;;;;;681867;28;1724;-69
2023/11/24 01:53:09;;;;;;;9.77;2.08;;;;;;;;;;684412;28;766;-72
2023/11/24 01:53:29;;;;;;;10.27;2.00;;;;;;;;;;684107;28;1626;-72
2023/11/24 01:53:51;;;;;;;12.53;2.53;;;;;;;;;;683570;28;1756;-73
2023/11/24 01:54:11;;;;;;;12.82;2.50;;;;;;;;;;685577;28;965;-73
2023/11/24 01:54:36;;;;;;;9.60;2.20;;;;;;;;;;685343;28;1174;-74
2023/11/24 01:54:57;;;;;;;11.73;2.30;;;;;;;;;;684910;28;4294;-73
2023/11/24 01:55:17;;;;;;;10.23;2.30;;;;;;;;;;686319;28;934;-74
2023/11/24 01:55:37;;;;;;;11.90;2.10;;;;;;;;;;683878;28;1939;-74
2023/11/24 01:55:58;;;;;;;10.60;2.03;;;;;;;;;;687180;28;1388;-73
2023/11/24 01:56:19;;;;;;;9.98;2.28;;;;;;;;;;687535;28;1312;-73
2023/11/24 01:56:39;;;;;;;10.13;2.33;;;;;;;;;;682951;28;1741;-73
2023/11/24 01:57:01;;;;;;;8.93;2.20;;;;;;;;;;682183;28;1254;-74
2023/11/24 01:57:23;;;;;;;10.73;2.20;;;;;;;;;;679416;29;1253;-73
2023/11/24 01:57:43;;;;;;;10.85;2.50;;;;;;;;;;678721;28;4291;-73
2023/11/24 01:58:04;;;;;;;8.88;1.98;;;;;;;;;;679395;29;1297;-74
2023/11/24 01:58:29;;;;;;;6.80;1.80;;;;;;;;;;679611;29;1178;-73
2023/11/24 01:58:50;;;;;;;10.35;2.10;;;;;;;;;;675752;29;1912;-73
2023/11/24 01:59:11;;;;;;;11.63;2.20;;;;;;;;;;679612;29;1353;-73
2023/11/24 01:59:32;;;;;;;9.35;2.00;;;;;;;;;;680631;29;932;-73
2023/11/24 01:59:53;;;;;;;9.00;2.20;;;;;;;;;;678528;29;2326;-74
2023/11/24 02:00:13;;;;;;;9.85;2.20;;;;;;;;;;679866;29;1162;-72
2023/11/24 02:00:36;;;;;;;9.52;2.20;;;;;;;;;;680340;28;2506;-74
2023/11/24 02:00:56;;;;;;;9.70;2.50;;;;;;;;;;679838;28;4495;-73
2023/11/24 02:01:16;;;;;;;11.10;2.58;;;;;;;;;;684869;28;1159;-71
2023/11/24 02:01:37;;;;;;;12.00;2.50;;;;;;;;;;680607;28;2578;-73
2023/11/24 02:01:59;;;;;;;10.13;2.53;;;;;;;;;;681979;29;1300;-74
2023/11/24 02:02:20;;;;;;;11.88;2.40;;;;;;;;;;684731;28;1206;-74
2023/11/24 02:02:41;;;;;;;13.32;2.60;;;;;;;;;;684316;28;1736;-75
2023/11/24 02:03:02;;;;;;;12.82;2.70;;;;;;;;;;684801;28;1360;-74
2023/11/24 02:03:22;;;;;;;10.52;2.30;;;;;;;;;;687720;28;1732;-74
2023/11/24 02:03:42;;;;;;;10.07;2.20;;;;;;;;;;685448;28;4326;-74
2023/11/24 02:04:02;;;;;;;9.73;2.50;;;;;;;;;;690045;28;905;-74
2023/11/24 02:04:23;;;;;;;12.27;2.47;;;;;;;;;;686970;28;1430;-74
2023/11/24 02:04:43;;;;;;;11.07;2.10;;;;;;;;;;686627;28;924;-73
2023/11/24 02:05:03;;;;;;;10.27;2.33;;;;;;;;;;687076;28;1073;-74
2023/11/24 02:05:24;;;;;;;11.00;2.33;;;;;;;;;;690126;28;1035;-74
2023/11/24 02:05:47;;;;;;;13.57;2.60;;;;;;;;;;682909;28;2660;-73
2023/11/24 02:06:08;;;;;;;12.07;2.88;;;;;;;;;;684776;28;2217;-74
2023/11/24 02:06:28;;;;;;;11.25;2.70;;;;;;;;;;687336;28;1468;-74
2023/11/24 02:06:49;;;;;;;10.80;2.50;;;;;;;;;;686485;28;4371;-74
2023/11/24 02:07:10;;;;;;;10.60;2.08;;;;;;;;;;684358;28;933;-73
2023/11/24 02:07:30;;;;;;;13.30;2.60;;;;;;;;;;683904;28;1126;-74
2023/11/24 02:07:51;;;;;;;13.02;3.28;;;;;;;;;;683907;28;2414;-74